createdAt,value
2022-08-29T00:00:00.175Z,1.1
2022-08-29T00:05:00.188Z,1.1
2022-08-29T00:10:00.195Z,1.1
2022-08-29T00:15:00.186Z,1.1
2022-08-29T00:20:00.190Z,1.1
2022-08-29T00:25:00.173Z,1.1
2022-08-29T00:30:00.175Z,1.1
2022-08-29T00:35:00.192Z,1.1
2022-08-29T00:40:00.360Z,1.1
2022-08-29T00:45:00.169Z,1.1
2022-08-29T00:50:00.175Z,1.1
2022-08-29T00:55:00.164Z,1.1
2022-08-29T01:00:00.243Z,1.1
2022-08-29T01:05:00.302Z,1.1
2022-08-29T01:10:00.181Z,1.1
2022-08-29T01:15:00.158Z,1.1
2022-08-29T01:20:00.188Z,1.1
2022-08-29T01:25:00.178Z,1.1
2022-08-29T01:30:00.164Z,1.1
2022-08-29T01:35:00.181Z,1.1
2022-08-29T01:40:00.238Z,1.1
2022-08-29T01:45:00.157Z,1.1
2022-08-29T01:50:00.266Z,1.1
2022-08-29T01:55:00.159Z,1.1
2022-08-29T02:00:00.173Z,1.1
2022-08-29T02:05:00.466Z,1.1
2022-08-29T02:10:00.211Z,1.1
2022-08-29T02:15:00.173Z,1.1
2022-08-29T02:20:00.203Z,1.1
2022-08-29T02:25:00.162Z,1.1
2022-08-29T02:30:00.223Z,1.1
2022-08-29T02:35:00.157Z,1.1
2022-08-29T02:40:00.322Z,1.1
2022-08-29T02:45:00.155Z,1.1
2022-08-29T02:50:00.155Z,1.1
2022-08-29T02:55:00.158Z,1.1
2022-08-29T03:00:00.202Z,1.1
2022-08-29T03:05:00.167Z,1.1
2022-08-29T03:10:00.169Z,1.1
2022-08-29T03:15:00.157Z,1.1
2022-08-29T03:20:00.200Z,1.1
2022-08-29T03:25:00.149Z,1.1
2022-08-29T03:30:00.195Z,1.1
2022-08-29T03:35:00.155Z,1.1
2022-08-29T03:40:00.271Z,1.1
2022-08-29T03:45:00.158Z,1.1
2022-08-29T03:50:00.199Z,1.1
2022-08-29T03:55:00.182Z,1.1
2022-08-29T04:00:00.171Z,1.1
2022-08-29T04:05:02.589Z,1.1
2022-08-29T04:10:00.168Z,1.1
2022-08-29T04:15:00.163Z,2
2022-08-29T04:20:00.166Z,5.3
2022-08-29T04:25:00.164Z,12.5
2022-08-29T04:30:00.183Z,26.2
2022-08-29T04:35:00.161Z,48.2
2022-08-29T04:40:00.301Z,78.6
2022-08-29T04:45:00.158Z,118.1
2022-08-29T04:50:00.163Z,163.1
2022-08-29T04:55:00.169Z,214.8
2022-08-29T05:00:00.152Z,269.5
2022-08-29T05:05:00.171Z,318.7
2022-08-29T05:10:00.156Z,367.8
2022-08-29T05:15:00.180Z,419.6
2022-08-29T05:20:00.166Z,456.2
2022-08-29T05:25:00.155Z,502
2022-08-29T05:30:00.159Z,545.8
2022-08-29T05:35:00.185Z,586.4
2022-08-29T05:40:00.247Z,622.5
2022-08-29T05:45:00.154Z,653
2022-08-29T05:50:00.167Z,685.1
2022-08-29T05:55:00.162Z,710.1
2022-08-29T06:00:00.170Z,744.8
2022-08-29T06:05:00.162Z,772.1
2022-08-29T06:10:03.620Z,800.3
2022-08-29T06:15:00.176Z,839.5
2022-08-29T06:20:00.171Z,870.2
2022-08-29T06:25:00.174Z,912.8
2022-08-29T06:30:01.924Z,934.9
2022-08-29T06:35:00.156Z,946.1
2022-08-29T06:40:00.295Z,969
2022-08-29T06:45:00.158Z,992.5
2022-08-29T06:50:00.166Z,1016.5
2022-08-29T06:55:00.163Z,1028.7
2022-08-29T07:00:00.169Z,1028.7
2022-08-29T07:05:00.167Z,1053.6
2022-08-29T07:10:00.178Z,1066.3
2022-08-29T07:15:00.180Z,1118.6
2022-08-29T07:20:00.189Z,1159.4
2022-08-29T07:25:00.253Z,1216.2
2022-08-29T07:30:00.268Z,1275.8
2022-08-29T07:35:00.274Z,1338.3
2022-08-29T07:40:00.293Z,1455.2
2022-08-29T07:45:00.290Z,1659.7
2022-08-29T07:50:00.176Z,1826.4
2022-08-29T07:55:00.194Z,1962.2
2022-08-29T08:00:00.183Z,2058.4
2022-08-29T08:05:00.163Z,2211.5
2022-08-29T08:10:00.173Z,2347.8
2022-08-29T08:15:00.164Z,2433.5
2022-08-29T08:20:00.171Z,2522.4
2022-08-29T08:25:00.165Z,2552.8
2022-08-29T08:30:00.252Z,2614.6
2022-08-29T08:35:00.159Z,2614.6
2022-08-29T08:40:00.280Z,2646
2022-08-29T08:45:00.163Z,2677.9
2022-08-29T08:50:00.172Z,2677.9
2022-08-29T08:55:00.165Z,2742.6
2022-08-29T09:00:00.167Z,2775.6
2022-08-29T09:05:00.163Z,2809
2022-08-29T09:10:00.185Z,2911.7
2022-08-29T09:15:00.157Z,2982.2
2022-08-29T09:20:00.163Z,3018
2022-08-29T09:25:00.156Z,2946.7
2022-08-29T09:30:00.161Z,3091.1
2022-08-29T09:35:09.499Z,3091.1
2022-08-29T09:40:00.288Z,3054.3
2022-08-29T09:45:00.157Z,3165.8
2022-08-29T09:50:00.199Z,3091.1
2022-08-29T09:55:00.161Z,3054.3
2022-08-29T10:00:00.172Z,3165.8
2022-08-29T10:05:00.158Z,3165.8
2022-08-29T10:10:00.167Z,3242.6
2022-08-29T10:15:00.160Z,3242.6
2022-08-29T10:20:00.182Z,3054.3
2022-08-29T10:25:00.155Z,2946.7
2022-08-29T10:30:00.154Z,3242.6
2022-08-29T10:35:00.158Z,3483.7
2022-08-29T10:40:00.253Z,3698.5
2022-08-29T10:45:00.187Z,4478.2
2022-08-29T10:50:00.156Z,3788
2022-08-29T10:55:00.151Z,3698.5
2022-08-29T11:00:00.185Z,4218.4
2022-08-29T11:05:00.161Z,3973.5
2022-08-29T11:10:00.163Z,4320.5
2022-08-29T11:15:00.162Z,4218.4
2022-08-29T11:20:00.207Z,4269.1
2022-08-29T11:25:00.159Z,3973.5
2022-08-29T11:30:00.175Z,3833.5
2022-08-29T11:35:00.156Z,3833.5
2022-08-29T11:40:00.243Z,2185.2
2022-08-29T11:45:00.158Z,3926.3
2022-08-29T11:50:00.180Z,4869.3
2022-08-29T11:55:00.166Z,5231.6
2022-08-29T12:00:00.177Z,4642
2022-08-29T12:05:00.156Z,4425
2022-08-29T12:10:00.164Z,3926.3
2022-08-29T12:15:00.176Z,4118.8
2022-08-29T12:20:00.177Z,1804.7
2022-08-29T12:25:00.172Z,3879.6
2022-08-29T12:30:00.167Z,3611.1
2022-08-29T12:35:02.530Z,3654.5
2022-08-29T12:40:00.303Z,1962.2
2022-08-29T12:45:00.429Z,3788
2022-08-29T12:50:00.179Z,3788
2022-08-29T12:55:00.228Z,3525.6
2022-08-29T13:00:00.334Z,3879.6
2022-08-29T13:05:00.169Z,3442.3
2022-08-29T13:10:00.325Z,3525.6
2022-08-29T13:15:00.173Z,3833.5
2022-08-29T13:20:00.315Z,2319.9
2022-08-29T13:25:00.175Z,4218.4
2022-08-29T13:30:00.247Z,3833.5
2022-08-29T13:35:00.171Z,3242.6
2022-08-29T13:40:00.292Z,3525.6
2022-08-29T13:45:00.209Z,4269.1
2022-08-29T13:50:00.406Z,3926.3
2022-08-29T13:55:00.290Z,4021.3
2022-08-29T14:00:00.420Z,3165.8
2022-08-29T14:05:00.431Z,3018
2022-08-29T14:10:00.299Z,2842.8
2022-08-29T14:15:02.923Z,2775.6
2022-08-29T14:20:00.178Z,2809
2022-08-29T14:25:00.174Z,2646
2022-08-29T14:30:00.175Z,2552.8
2022-08-29T14:35:00.172Z,2492.4
2022-08-29T14:40:00.311Z,2492.4
2022-08-29T14:45:00.185Z,2677.9
2022-08-29T14:50:00.181Z,2492.4
2022-08-29T14:55:00.187Z,2492.4
2022-08-29T15:00:00.158Z,2522.4
2022-08-29T15:05:00.171Z,2492.4
2022-08-29T15:10:00.198Z,2433.5
2022-08-29T15:15:00.166Z,2492.4
2022-08-29T15:25:00.162Z,2552.8
2022-08-29T15:30:00.167Z,2552.8
2022-08-29T15:35:00.167Z,2552.8
2022-08-29T15:40:00.290Z,2710.1
2022-08-29T15:45:02.476Z,2677.9
2022-08-29T15:50:00.185Z,2677.9
2022-08-29T15:55:01.309Z,2677.9
2022-08-29T16:00:00.199Z,2677.9
2022-08-29T16:05:00.189Z,2492.4
2022-08-29T16:10:00.359Z,2492.4
2022-08-29T16:15:01.078Z,2265.1
2022-08-29T16:20:00.184Z,2238.1
2022-08-29T16:25:00.173Z,2462.8
2022-08-29T16:30:00.326Z,2492.4
2022-08-29T16:35:00.298Z,2677.9
2022-08-29T16:40:00.467Z,2376
2022-08-29T16:45:00.162Z,2319.9
2022-08-29T16:50:00.258Z,1741
2022-08-29T16:55:00.168Z,2108.2
2022-08-29T17:00:00.493Z,2009.8
2022-08-29T17:05:00.160Z,2009.8
2022-08-29T17:10:00.299Z,1720.4
2022-08-29T17:15:00.165Z,1848.4
2022-08-29T17:20:00.161Z,1848.4
2022-08-29T17:25:00.159Z,1508.3
2022-08-29T17:30:00.210Z,1338.3
2022-08-29T17:35:00.172Z,1216.2
2022-08-29T17:40:00.421Z,1159.4
2022-08-29T17:45:00.161Z,1028.7
2022-08-29T17:50:00.218Z,772.1
2022-08-29T17:55:03.795Z,532.9
2022-08-29T18:00:00.193Z,342.4
2022-08-29T18:05:00.165Z,204.7
2022-08-29T18:10:00.201Z,121
2022-08-29T18:15:00.174Z,69
2022-08-29T18:20:00.162Z,41.2
2022-08-29T18:25:00.162Z,19.4
2022-08-29T18:30:00.167Z,7.6
2022-08-29T18:35:00.770Z,3
2022-08-29T18:40:00.301Z,1.3
2022-08-29T18:45:00.172Z,1.1
2022-08-29T18:50:00.170Z,1.1
2022-08-29T18:55:00.162Z,1.1
2022-08-29T19:00:00.179Z,1.1
2022-08-29T19:05:00.166Z,1.1
2022-08-29T19:10:00.200Z,1.1
2022-08-29T19:15:00.240Z,1.1
2022-08-29T19:20:00.179Z,1.1
2022-08-29T19:35:00.161Z,1.1
2022-08-29T19:40:00.292Z,1.1
2022-08-29T19:45:00.168Z,1.1
2022-08-29T19:50:00.180Z,1.1
2022-08-29T19:55:00.234Z,1.1
2022-08-29T20:00:00.161Z,1.1
2022-08-29T20:05:00.294Z,1.1
2022-08-29T20:10:00.172Z,1.1
2022-08-29T20:15:00.273Z,1.1
2022-08-29T20:20:00.229Z,1.1
2022-08-29T20:25:00.189Z,1.1
2022-08-29T20:30:00.217Z,1.1
2022-08-29T20:35:00.177Z,1.1
2022-08-29T20:40:00.251Z,1.1
2022-08-29T20:45:00.196Z,1.1
2022-08-29T20:50:00.166Z,1.1
2022-08-29T20:55:00.182Z,1.1
2022-08-29T21:00:00.168Z,1.1
2022-08-29T21:05:00.167Z,1.1
2022-08-29T21:10:00.167Z,1.1
2022-08-29T21:15:00.191Z,1.1
2022-08-29T21:20:00.179Z,1.1
2022-08-29T21:25:00.184Z,1.1
2022-08-29T21:30:00.209Z,1.1
2022-08-29T21:35:00.205Z,1.1
2022-08-29T21:40:00.248Z,1.1
2022-08-29T21:45:00.173Z,1.1
2022-08-29T21:50:00.210Z,1.1
2022-08-29T21:55:00.259Z,1.1
2022-08-29T22:00:00.188Z,1.1
2022-08-29T22:05:00.167Z,1.1
2022-08-29T22:10:00.201Z,1.1
2022-08-29T22:15:00.176Z,1.1
2022-08-29T22:20:00.188Z,1.1
2022-08-29T22:25:00.161Z,1.1
2022-08-29T22:30:00.177Z,1.1
2022-08-29T22:35:00.168Z,1.1
2022-08-29T22:40:00.293Z,1.1
2022-08-29T22:45:03.617Z,1.1
2022-08-29T22:50:00.171Z,1.1
2022-08-29T22:55:00.183Z,1.1
2022-08-29T23:00:00.188Z,1.1
2022-08-29T23:05:00.176Z,1.1
2022-08-29T23:10:00.186Z,1.1
2022-08-29T23:15:00.177Z,1.1
2022-08-29T23:20:00.178Z,1.1
2022-08-29T23:25:00.188Z,1.1
2022-08-29T23:30:00.189Z,1.1
2022-08-29T23:35:00.182Z,1.1
2022-08-29T23:40:00.311Z,1.1
2022-08-29T23:45:00.167Z,1.1
2022-08-29T23:50:00.176Z,1.1
2022-08-29T23:55:00.175Z,1.1
